Time;durP1;ratioP1;P1;durP2;ratioP2;P2;SDS_P1;SDS_P2;PMS_P1;PMS_P2;Temp;Humidity;BMP_temperature;BMP_pressure;BME280_temperature;BME280_humidity;BME280_pressure;Samples;Min_cycle;Max_cycle;Signal;HPM_P1;HPM_P2
2023/11/16 00:00:17;;;;;;;13.23;12.37;;;6.50;99.90;;;;;;4870833;29;20663;-78
2023/11/16 00:02:45;;;;;;;12.40;11.70;;;6.50;99.90;;;;;;4876299;29;20204;-77
2023/11/16 00:05:13;;;;;;;12.77;11.83;;;6.50;99.90;;;;;;4880567;29;20199;-78
2023/11/16 00:07:41;;;;;;;12.73;11.83;;;6.50;99.90;;;;;;4870403;29;20643;-78
2023/11/16 00:10:10;;;;;;;12.47;11.70;;;6.60;99.90;;;;;;4869436;29;20205;-78
2023/11/16 00:12:39;;;;;;;13.20;12.30;;;6.60;99.90;;;;;;4871274;29;20217;-78
2023/11/16 00:15:06;;;;;;;12.83;12.03;;;6.70;99.90;;;;;;4874257;29;20295;-79
2023/11/16 00:17:33;;;;;;;12.97;12.20;;;6.70;99.90;;;;;;4877328;29;20259;-79
2023/11/16 00:20:01;;;;;;;13.10;12.30;;;6.70;99.90;;;;;;4870840;29;20252;-79
2023/11/16 00:22:28;;;;;;;13.33;12.30;;;6.80;99.90;;;;;;4882051;29;20211;-78
2023/11/16 00:24:54;;;;;;;13.23;12.33;;;6.80;99.90;;;;;;4874913;29;20199;-78
2023/11/16 00:27:24;;;;;;;13.37;12.50;;;6.80;99.90;;;;;;4872471;29;20272;-78
2023/11/16 00:29:52;;;;;;;12.90;12.10;;;6.70;99.90;;;;;;4876682;29;20224;-78
2023/11/16 00:32:20;;;;;;;12.97;12.13;;;6.70;99.90;;;;;;4870231;29;20293;-78
2023/11/16 00:34:46;;;;;;;13.77;12.73;;;6.70;99.90;;;;;;4869830;29;20211;-77
2023/11/16 00:37:14;;;;;;;14.00;12.97;;;6.70;99.90;;;;;;4875143;29;20283;-78
2023/11/16 00:39:40;;;;;;;13.00;12.20;;;6.70;99.90;;;;;;4875472;29;20209;-78
2023/11/16 00:42:08;;;;;;;12.70;12.00;;;6.70;99.90;;;;;;4869693;29;20287;-78
2023/11/16 00:44:35;;;;;;;13.43;12.53;;;6.80;99.90;;;;;;4895941;29;20234;-78
2023/11/16 00:47:03;;;;;;;13.73;12.93;;;6.80;99.90;;;;;;4873699;29;20248;-79
2023/11/16 00:49:30;;;;;;;13.20;12.40;;;6.90;99.90;;;;;;4879124;29;20803;-77
2023/11/16 00:51:57;;;;;;;13.50;12.40;;;7.00;99.90;;;;;;4874523;29;20204;-79
2023/11/16 00:54:24;;;;;;;13.37;12.57;;;7.00;99.90;;;;;;4869690;29;20243;-78
2023/11/16 00:56:51;;;;;;;14.10;13.00;;;7.10;99.90;;;;;;4875351;29;20228;-79
2023/11/16 00:59:20;;;;;;;12.97;12.17;;;7.10;99.90;;;;;;4876647;29;20205;-77
2023/11/16 01:01:47;;;;;;;13.00;12.03;;;7.20;99.90;;;;;;4875082;29;20571;-78
2023/11/16 01:04:15;;;;;;;13.33;12.53;;;7.20;99.90;;;;;;4886769;29;20208;-79
2023/11/16 01:06:42;;;;;;;12.97;12.23;;;7.20;99.90;;;;;;4882042;29;20739;-78
2023/11/16 01:09:09;;;;;;;13.27;12.47;;;7.20;99.90;;;;;;4879891;29;20202;-78
2023/11/16 01:11:39;;;;;;;13.07;12.27;;;7.30;99.90;;;;;;4869783;29;20206;-78
2023/11/16 01:14:08;;;;;;;13.47;12.57;;;7.30;99.90;;;;;;4869644;29;20226;-79
2023/11/16 01:16:40;;;;;;;13.17;12.30;;;7.30;99.90;;;;;;4875334;29;20658;-79
2023/11/16 01:19:08;;;;;;;13.30;12.50;;;7.30;99.90;;;;;;4877191;29;20197;-79
2023/11/16 01:21:41;;;;;;;12.90;12.10;;;7.40;99.90;;;;;;4889403;29;20276;-79
2023/11/16 01:24:08;;;;;;;12.90;12.10;;;7.40;99.90;;;;;;4885615;29;20212;-78
2023/11/16 01:26:36;;;;;;;13.03;12.23;;;7.50;99.90;;;;;;4884639;29;20221;-78
2023/11/16 01:29:08;;;;;;;13.20;12.40;;;7.50;99.90;;;;;;4891628;29;20234;-79
2023/11/16 01:31:35;;;;;;;13.93;13.03;;;7.50;99.90;;;;;;4882464;29;20205;-78
2023/11/16 01:34:02;;;;;;;13.07;12.37;;;7.60;99.90;;;;;;4873470;29;20442;-78
2023/11/16 01:36:29;;;;;;;14.23;12.83;;;7.60;99.90;;;;;;4879175;29;20232;-78
2023/11/16 01:38:57;;;;;;;12.93;12.13;;;7.60;99.90;;;;;;4873424;29;20782;-79
2023/11/16 01:41:24;;;;;;;13.47;12.67;;;7.60;99.90;;;;;;4884700;29;20210;-78
2023/11/16 01:43:51;;;;;;;13.60;12.70;;;7.60;99.90;;;;;;4875278;29;20206;-78
2023/11/16 01:46:18;;;;;;;13.93;12.93;;;7.50;99.90;;;;;;4882034;29;20212;-79
2023/11/16 01:48:46;;;;;;;13.20;12.40;;;7.50;99.90;;;;;;4871128;29;20251;-78
2023/11/16 01:51:16;;;;;;;13.30;12.40;;;7.50;99.90;;;;;;4878076;29;20194;-78
2023/11/16 01:53:46;;;;;;;12.43;11.73;;;7.50;99.90;;;;;;4871763;29;20201;-78
2023/11/16 01:56:16;;;;;;;12.50;11.60;;;7.60;99.90;;;;;;4872171;29;20690;-78
2023/11/16 01:58:45;;;;;;;11.67;10.97;;;7.60;99.90;;;;;;4874775;29;20653;-79
2023/11/16 02:01:15;;;;;;;12.10;11.30;;;7.60;99.90;;;;;;4870791;29;20269;-77
2023/11/16 02:03:43;;;;;;;11.90;11.20;;;7.50;99.90;;;;;;4877178;29;20272;-78
2023/11/16 02:06:10;;;;;;;12.17;11.37;;;7.60;99.90;;;;;;4871729;29;20213;-77
2023/11/16 02:08:38;;;;;;;12.70;11.70;;;7.60;99.90;;;;;;4871407;29;20584;-77
2023/11/16 02:11:06;;;;;;;12.00;11.20;;;7.60;99.90;;;;;;4875783;29;20213;-79
2023/11/16 02:13:34;;;;;;;12.33;11.53;;;7.60;99.90;;;;;;4877020;29;20198;-78
2023/11/16 02:16:01;;;;;;;12.50;11.70;;;7.60;99.90;;;;;;4876081;29;20675;-78
2023/11/16 02:18:29;;;;;;;11.87;11.17;;;7.60;99.90;;;;;;4873721;29;20329;-79
2023/11/16 02:20:56;;;;;;;12.23;11.43;;;7.60;99.90;;;;;;4879738;29;20206;-78
2023/11/16 02:23:25;;;;;;;12.20;11.37;;;7.60;99.90;;;;;;4872836;29;20695;-78
2023/11/16 02:25:53;;;;;;;12.13;11.30;;;7.50;99.90;;;;;;4876612;29;20235;-78
2023/11/16 02:28:22;;;;;;;11.93;11.13;;;7.50;99.90;;;;;;4883934;29;20252;-79
2023/11/16 02:30:50;;;;;;;12.13;11.33;;;7.60;99.90;;;;;;4879643;29;20229;-78
2023/11/16 02:33:17;;;;;;;11.93;11.00;;;7.60;99.90;;;;;;4877064;29;20242;-78
2023/11/16 02:35:43;;;;;;;11.97;11.07;;;7.60;99.90;;;;;;4871101;29;20205;-78
2023/11/16 02:38:14;;;;;;;11.83;11.13;;;7.60;99.90;;;;;;4871132;29;20278;-79
2023/11/16 02:40:42;;;;;;;12.00;11.10;;;7.60;99.90;;;;;;4882952;29;20210;-80
2023/11/16 02:43:09;;;;;;;12.10;11.30;;;7.60;99.90;;;;;;4874415;29;20238;-78
2023/11/16 02:45:36;;;;;;;11.80;10.90;;;7.50;99.90;;;;;;4870452;29;20209;-79
2023/11/16 02:48:04;;;;;;;11.50;10.80;;;7.50;99.90;;;;;;4885157;29;20228;-78
2023/11/16 02:50:31;;;;;;;11.80;11.00;;;7.40;99.90;;;;;;4881732;29;20220;-79
2023/11/16 02:52:57;;;;;;;12.40;11.53;;;7.30;99.90;;;;;;4887531;29;20216;-77
2023/11/16 02:55:25;;;;;;;12.17;11.37;;;7.20;99.90;;;;;;4886900;29;20234;-79
2023/11/16 02:57:55;;;;;;;12.70;11.67;;;7.10;99.90;;;;;;4885141;29;20260;-78
2023/11/16 03:00:22;;;;;;;12.50;11.80;;;7.10;99.90;;;;;;4876074;29;20228;-79
2023/11/16 03:02:50;;;;;;;13.17;12.27;;;7.00;99.90;;;;;;4870141;29;20612;-78
2023/11/16 03:05:21;;;;;;;12.43;11.67;;;7.00;99.90;;;;;;4870352;29;20234;-79
2023/11/16 03:07:50;;;;;;;13.23;12.30;;;6.90;99.90;;;;;;4871348;29;20217;-78
2023/11/16 03:10:17;;;;;;;12.63;11.83;;;6.90;99.90;;;;;;4875559;29;20209;-78
2023/11/16 03:12:45;;;;;;;12.80;12.00;;;7.00;99.90;;;;;;4871201;29;20221;-79
2023/11/16 03:15:14;;;;;;;13.10;12.10;;;7.00;99.90;;;;;;4873801;29;20220;-78
2023/11/16 03:17:43;;;;;;;13.90;13.00;;;7.00;99.90;;;;;;4872088;29;20253;-78
2023/11/16 03:20:12;;;;;;;12.70;11.90;;;7.00;99.90;;;;;;4877671;29;20205;-78
2023/11/16 03:22:40;;;;;;;12.97;12.17;;;7.00;99.90;;;;;;4884887;29;20309;-78
2023/11/16 03:25:08;;;;;;;13.60;12.80;;;6.90;99.90;;;;;;4870666;29;20213;-77
2023/11/16 03:27:35;;;;;;;13.10;12.30;;;7.00;99.90;;;;;;4877490;29;20627;-78
2023/11/16 03:30:02;;;;;;;12.87;12.07;;;7.00;99.90;;;;;;4870779;29;20204;-79
2023/11/16 03:32:30;;;;;;;12.60;11.80;;;7.00;99.90;;;;;;4869963;29;20225;-78
2023/11/16 03:34:57;;;;;;;12.30;11.60;;;7.10;99.90;;;;;;4880222;29;20256;-79
2023/11/16 03:37:24;;;;;;;12.83;12.07;;;7.20;99.90;;;;;;4875770;29;20722;-78
2023/11/16 03:39:52;;;;;;;13.30;12.57;;;7.20;99.90;;;;;;4869606;29;20273;-78
2023/11/16 03:42:20;;;;;;;13.70;12.90;;;7.20;99.90;;;;;;4869365;29;20205;-78
2023/11/16 03:44:49;;;;;;;13.50;12.50;;;7.20;99.90;;;;;;4878941;29;20209;-79
2023/11/16 03:47:16;;;;;;;13.07;12.23;;;7.30;99.90;;;;;;4871140;29;20371;-78
2023/11/16 03:49:47;;;;;;;14.47;13.40;;;7.30;99.90;;;;;;4869223;29;20572;-81
2023/11/16 03:52:26;;;;;;;13.07;12.27;;;7.30;99.90;;;;;;4874060;29;20302;-82
2023/11/16 03:59:14;;;;;;;;;;;;;;;;;;;;;
2023/11/16 04:02:24;;;;;;;;;;;;;;;;;;;;;
2023/11/16 04:05:44;;;;;;;11.73;11.03;;;7.40;99.90;;;;;;4877607;29;20206;-82
2023/11/16 04:11:49;;;;;;;11.90;11.20;;;7.50;99.90;;;;;;4849215;29;20295;-81
2023/11/16 04:14:18;;;;;;;11.87;11.17;;;7.50;99.90;;;;;;4878856;29;20208;-81
2023/11/16 04:17:03;;;;;;;12.10;11.30;;;7.50;99.90;;;;;;4864260;29;20234;-83
2023/11/16 04:19:45;;;;;;;12.23;11.43;;;7.60;99.90;;;;;;4867575;29;20229;-83
2023/11/16 04:22:54;;;;;;;12.23;11.43;;;7.60;99.90;;;;;;4878534;29;20256;-83
2023/11/16 04:25:43;;;;;;;12.17;11.43;;;7.60;99.90;;;;;;4867163;29;20307;-83
2023/11/16 04:28:13;;;;;;;12.57;11.70;;;7.60;99.90;;;;;;4860856;29;20270;-83
2023/11/16 04:30:50;;;;;;;12.53;11.67;;;7.60;99.90;;;;;;4876911;29;20205;-84
2023/11/16 04:33:40;;;;;;;11.70;10.93;;;7.60;99.90;;;;;;4871863;29;20206;-84
2023/11/16 04:39:32;;;;;;;12.27;11.57;;;7.60;99.90;;;;;;4856109;29;20244;-83
2023/11/16 04:42:33;;;;;;;12.53;11.73;;;7.60;99.90;;;;;;4867904;29;20289;-82
2023/11/16 04:45:14;;;;;;;11.97;11.20;;;7.50;99.90;;;;;;4815040;29;20203;-81
2023/11/16 04:54:44;;;;;;;12.50;11.80;;;7.50;99.90;;;;;;4868609;29;20216;-82
2023/11/16 05:00:25;;;;;;;12.30;11.60;;;7.50;99.90;;;;;;4883532;29;20588;-79
2023/11/16 05:02:52;;;;;;;12.30;11.50;;;7.50;99.90;;;;;;4875269;29;20698;-78
2023/11/16 05:05:19;;;;;;;12.00;11.20;;;7.50;99.90;;;;;;4880993;29;20210;-79
2023/11/16 05:07:46;;;;;;;12.37;11.50;;;7.60;99.90;;;;;;4885426;29;20224;-78
2023/11/16 05:10:16;;;;;;;12.00;11.20;;;7.60;99.90;;;;;;4879119;29;20212;-79
2023/11/16 05:12:48;;;;;;;12.17;11.33;;;7.60;99.90;;;;;;4869612;29;20207;-79
2023/11/16 05:15:16;;;;;;;12.00;11.20;;;7.60;99.90;;;;;;4881379;29;20215;-79
2023/11/16 05:17:43;;;;;;;12.20;11.13;;;7.60;99.90;;;;;;4868538;29;20249;-79
2023/11/16 05:20:11;;;;;;;11.67;10.80;;;7.70;99.90;;;;;;4869538;29;20702;-79
2023/11/16 05:22:38;;;;;;;11.87;11.10;;;7.70;99.90;;;;;;4862961;29;20257;-78
2023/11/16 05:25:07;;;;;;;11.80;11.00;;;7.70;99.90;;;;;;4865651;29;20201;-79
2023/11/16 05:27:34;;;;;;;12.00;11.23;;;7.70;99.90;;;;;;4869074;29;20231;-78
2023/11/16 05:30:03;;;;;;;12.30;11.40;;;7.60;99.90;;;;;;4860929;29;20212;-78
2023/11/16 05:32:29;;;;;;;11.80;11.10;;;7.60;99.90;;;;;;4869907;29;20209;-78
2023/11/16 05:34:57;;;;;;;12.50;11.70;;;7.50;99.90;;;;;;4868511;29;20213;-79
2023/11/16 05:37:24;;;;;;;12.20;11.50;;;7.50;99.90;;;;;;4874129;29;20224;-78
2023/11/16 05:39:51;;;;;;;12.33;11.53;;;7.50;99.90;;;;;;4874452;29;20264;-79
2023/11/16 05:42:21;;;;;;;12.37;11.57;;;7.40;99.90;;;;;;4872547;29;20718;-79
2023/11/16 05:44:48;;;;;;;12.13;11.40;;;7.40;99.90;;;;;;4879524;29;20224;-79
2023/11/16 05:47:16;;;;;;;12.60;11.70;;;7.40;99.90;;;;;;4880169;29;20253;-79
2023/11/16 05:57:14;;;;;;;13.30;12.30;;;7.40;99.90;;;;;;4825234;29;20220;-81
2023/11/16 05:59:41;;;;;;;13.73;12.83;;;7.30;99.90;;;;;;4839119;29;20237;-82
2023/11/16 06:02:09;;;;;;;12.30;11.50;;;7.40;99.90;;;;;;4864493;29;20222;-82
2023/11/16 06:04:37;;;;;;;12.90;11.70;;;7.30;99.90;;;;;;4869992;29;20202;-82
2023/11/16 06:07:05;;;;;;;12.03;11.13;;;7.40;99.90;;;;;;4878672;29;20648;-82
2023/11/16 06:09:31;;;;;;;14.17;13.20;;;7.30;99.90;;;;;;4868108;29;20198;-81
2023/11/16 06:12:01;;;;;;;13.43;12.53;;;7.30;99.90;;;;;;4880250;29;20279;-81
2023/11/16 06:14:32;;;;;;;14.20;13.20;;;7.30;99.90;;;;;;4871169;29;20660;-82
2023/11/16 06:16:59;;;;;;;13.80;12.93;;;7.30;99.90;;;;;;4872542;29;20224;-82
2023/11/16 06:19:27;;;;;;;12.37;11.67;;;7.30;99.90;;;;;;4867726;29;20277;-81
2023/11/16 06:21:56;;;;;;;12.40;11.60;;;7.30;99.90;;;;;;4869583;29;20198;-81
2023/11/16 06:24:22;;;;;;;14.03;12.57;;;7.20;99.90;;;;;;4863954;29;20257;-82
2023/11/16 06:26:49;;;;;;;13.07;12.17;;;7.30;99.90;;;;;;4880920;29;20722;-82
2023/11/16 06:29:16;;;;;;;12.70;11.90;;;7.20;99.90;;;;;;4872254;29;20209;-82
2023/11/16 06:31:43;;;;;;;13.07;12.07;;;7.20;99.90;;;;;;4869789;29;20209;-82
2023/11/16 06:34:10;;;;;;;13.67;12.77;;;7.20;99.90;;;;;;4862786;29;20210;-82
2023/11/16 06:36:37;;;;;;;13.30;12.30;;;7.20;99.90;;;;;;4870132;29;20727;-82
2023/11/16 06:39:06;;;;;;;12.83;11.93;;;7.20;99.90;;;;;;4862357;29;20228;-82
2023/11/16 06:41:32;;;;;;;12.90;11.87;;;7.20;99.90;;;;;;4878822;29;20256;-81
2023/11/16 06:44:05;;;;;;;13.67;12.57;;;7.10;99.90;;;;;;4882378;29;20204;-83
2023/11/16 06:46:45;;;;;;;13.53;12.43;;;7.10;99.90;;;;;;4867964;29;20245;-82
2023/11/16 06:49:12;;;;;;;13.13;12.10;;;7.10;99.90;;;;;;4876948;29;20296;-82
2023/11/16 06:51:39;;;;;;;13.50;12.40;;;7.10;99.90;;;;;;4878395;29;20205;-81
2023/11/16 06:54:11;;;;;;;13.13;12.13;;;7.20;99.90;;;;;;4871769;29;20641;-84
2023/11/16 06:56:40;;;;;;;13.50;12.50;;;7.20;99.90;;;;;;4896609;29;20731;-78
2023/11/16 06:59:12;;;;;;;13.63;12.57;;;7.20;99.90;;;;;;4884454;29;20216;-78
2023/11/16 07:01:40;;;;;;;13.57;12.57;;;7.10;99.90;;;;;;4885022;29;20203;-79
2023/11/16 07:04:07;;;;;;;15.50;14.10;;;7.10;99.90;;;;;;4882947;29;20303;-79
2023/11/16 07:06:34;;;;;;;13.77;12.77;;;7.20;99.90;;;;;;4877694;29;20229;-77
2023/11/16 07:09:01;;;;;;;13.70;12.60;;;7.20;99.90;;;;;;4879503;29;20201;-78
2023/11/16 07:11:29;;;;;;;14.30;13.10;;;7.20;99.90;;;;;;4884050;29;20623;-77
2023/11/16 07:13:56;;;;;;;12.93;12.03;;;7.20;99.90;;;;;;4880935;29;20327;-78
2023/11/16 07:16:23;;;;;;;12.80;11.90;;;7.30;99.90;;;;;;4884981;29;20215;-78
2023/11/16 07:18:49;;;;;;;12.70;11.70;;;7.30;99.90;;;;;;4873378;29;20225;-76
2023/11/16 07:21:16;;;;;;;12.23;11.33;;;7.40;99.90;;;;;;4879906;29;20204;-76
2023/11/16 07:23:43;;;;;;;13.20;12.00;;;7.40;99.90;;;;;;4876597;29;20261;-76
2023/11/16 07:26:10;;;;;;;13.23;12.23;;;7.40;99.90;;;;;;4875714;29;20592;-76
2023/11/16 07:28:39;;;;;;;13.00;11.90;;;7.40;99.90;;;;;;4873096;29;20606;-77
2023/11/16 07:31:06;;;;;;;13.07;12.07;;;7.50;99.90;;;;;;4878414;29;20233;-76
2023/11/16 07:33:34;;;;;;;12.60;11.70;;;7.50;99.90;;;;;;4870281;29;20752;-77
2023/11/16 07:36:01;;;;;;;13.43;12.43;;;7.50;99.90;;;;;;4874441;29;20275;-77
2023/11/16 07:38:28;;;;;;;12.23;11.43;;;7.50;99.90;;;;;;4873168;29;20229;-76
2023/11/16 07:40:57;;;;;;;12.53;11.73;;;7.60;99.90;;;;;;4872510;29;20219;-76
2023/11/16 07:43:24;;;;;;;11.70;10.90;;;7.70;99.90;;;;;;4876892;29;20228;-76
2023/11/16 07:45:52;;;;;;;12.17;11.37;;;7.80;99.90;;;;;;4875315;29;20266;-75
2023/11/16 07:51:57;;;;;;;12.50;11.60;;;7.90;99.90;;;;;;4836700;29;20209;-78
2023/11/16 08:12:56;;;;;;;11.40;10.60;;;8.60;99.90;;;;;;4858347;29;20211;-79
2023/11/16 08:15:24;;;;;;;12.10;11.17;;;8.60;99.90;;;;;;4895434;29;20680;-79
2023/11/16 08:17:53;;;;;;;11.90;11.00;;;8.60;99.90;;;;;;4877152;29;20221;-79
2023/11/16 08:20:29;;;;;;;12.00;11.10;;;8.70;99.90;;;;;;4881353;29;20694;-81
2023/11/16 08:22:56;;;;;;;12.17;11.27;;;8.80;99.90;;;;;;4879993;29;20224;-81
2023/11/16 08:25:30;;;;;;;11.43;10.63;;;8.90;99.90;;;;;;4864815;29;20209;-81
2023/11/16 08:31:52;;;;;;;11.97;11.07;;;8.90;99.90;;;;;;4868101;29;20696;-80
2023/11/16 08:34:26;;;;;;;12.20;11.33;;;8.90;99.90;;;;;;4858079;29;20212;-78
2023/11/16 08:36:53;;;;;;;11.83;10.97;;;8.90;99.90;;;;;;4865201;29;20755;-77
2023/11/16 08:39:20;;;;;;;12.10;11.20;;;8.90;99.90;;;;;;4865445;29;20718;-77
2023/11/16 08:41:48;;;;;;;12.50;11.53;;;8.90;99.90;;;;;;4871975;29;20630;-78
2023/11/16 08:44:16;;;;;;;12.40;11.50;;;8.90;99.90;;;;;;4879801;29;20291;-76
2023/11/16 08:46:46;;;;;;;12.90;11.90;;;9.00;99.90;;;;;;4868264;29;20253;-77
2023/11/16 08:49:12;;;;;;;11.73;10.93;;;9.00;99.90;;;;;;4874422;29;20216;-77
2023/11/16 08:51:39;;;;;;;12.67;11.60;;;9.00;99.90;;;;;;4875402;29;20212;-77
2023/11/16 08:54:07;;;;;;;11.93;11.13;;;9.10;99.90;;;;;;4869197;29;20296;-77
2023/11/16 08:56:35;;;;;;;12.30;11.30;;;9.20;99.90;;;;;;4875440;29;20248;-75
2023/11/16 08:59:07;;;;;;;13.23;12.13;;;9.20;99.90;;;;;;4874998;29;20201;-76
2023/11/16 09:01:35;;;;;;;12.50;11.50;;;9.20;99.90;;;;;;4860545;29;20586;-76
2023/11/16 09:04:03;;;;;;;13.30;12.20;;;9.30;99.90;;;;;;4877107;29;20240;-77
2023/11/16 09:06:30;;;;;;;13.90;12.70;;;9.30;99.90;;;;;;4860567;29;20308;-77
2023/11/16 09:08:59;;;;;;;13.50;12.50;;;9.30;99.90;;;;;;4868495;29;20459;-77
2023/11/16 09:11:27;;;;;;;14.27;13.07;;;9.30;99.90;;;;;;4861648;29;20264;-75
2023/11/16 09:13:54;;;;;;;14.33;13.13;;;9.40;99.90;;;;;;4877010;29;20213;-75
2023/11/16 09:16:22;;;;;;;14.10;12.80;;;9.40;99.90;;;;;;4876818;29;20213;-75
2023/11/16 09:18:49;;;;;;;14.57;13.27;;;9.40;99.90;;;;;;4876274;29;20213;-74
2023/11/16 09:21:18;;;;;;;13.40;12.50;;;9.50;99.90;;;;;;4869455;29;20254;-75
2023/11/16 09:23:44;;;;;;;13.33;12.23;;;9.60;99.90;;;;;;4869467;29;20305;-75
2023/11/16 09:26:11;;;;;;;14.50;13.20;;;9.60;99.90;;;;;;4869916;29;20209;-75
2023/11/16 09:28:39;;;;;;;12.97;11.97;;;9.70;99.90;;;;;;4877757;29;20204;-77
2023/11/16 09:31:10;;;;;;;13.30;12.20;;;9.70;99.90;;;;;;4876120;29;20194;-77
2023/11/16 09:33:39;;;;;;;12.77;11.93;;;9.80;99.90;;;;;;4877418;29;20209;-77
2023/11/16 09:36:08;;;;;;;13.47;12.47;;;9.80;99.90;;;;;;4868651;29;20208;-77
2023/11/16 09:38:37;;;;;;;13.37;12.27;;;9.90;99.90;;;;;;4867606;29;20277;-77
2023/11/16 09:41:15;;;;;;;13.80;12.70;;;9.90;99.90;;;;;;4872363;29;20221;-77
2023/11/16 09:43:45;;;;;;;12.83;11.87;;;10.00;99.90;;;;;;4871799;29;20630;-77
2023/11/16 09:46:16;;;;;;;12.70;11.80;;;9.90;99.90;;;;;;4879303;29;20682;-77
2023/11/16 09:48:46;;;;;;;12.93;12.03;;;10.00;99.90;;;;;;4883691;29;20464;-77
2023/11/16 09:51:17;;;;;;;12.83;11.90;;;10.10;99.90;;;;;;4883669;29;20205;-76
2023/11/16 09:53:50;;;;;;;13.43;12.33;;;10.10;99.90;;;;;;4882208;29;20614;-78
2023/11/16 09:56:20;;;;;;;13.90;12.60;;;10.00;99.90;;;;;;4880190;29;20220;-78
2023/11/16 09:58:48;;;;;;;13.30;12.30;;;9.90;99.90;;;;;;4880118;29;20205;-77
2023/11/16 10:01:18;;;;;;;14.17;13.07;;;10.00;99.90;;;;;;4872546;29;20281;-77
2023/11/16 10:03:48;;;;;;;14.40;13.23;;;10.00;99.90;;;;;;4880315;29;20213;-77
2023/11/16 10:06:20;;;;;;;13.40;12.43;;;10.00;99.90;;;;;;4876368;29;20206;-77
2023/11/16 10:08:49;;;;;;;13.20;12.20;;;10.10;99.90;;;;;;4870102;29;20243;-77
2023/11/16 10:11:22;;;;;;;12.07;11.17;;;10.10;99.90;;;;;;4878767;29;20194;-77
2023/11/16 10:13:53;;;;;;;12.37;11.17;;;10.10;99.90;;;;;;4864571;29;20623;-77
2023/11/16 10:16:39;;;;;;;12.13;11.23;;;10.10;99.90;;;;;;4869956;29;20286;-80
2023/11/16 10:19:41;;;;;;;11.83;10.93;;;10.10;99.90;;;;;;4879105;29;20206;-84
2023/11/16 10:22:14;;;;;;;12.43;11.17;;;10.00;99.90;;;;;;4876917;29;20208;-82
2023/11/16 10:25:01;;;;;;;11.87;11.07;;;9.90;99.90;;;;;;4873517;29;20297;-83
2023/11/16 10:36:24;;;;;;;13.37;12.27;;;10.00;99.90;;;;;;4820545;29;20213;-83
2023/11/16 10:43:02;;;;;;;13.07;11.97;;;9.90;99.90;;;;;;4859913;29;20213;-80
2023/11/16 10:45:29;;;;;;;13.70;12.67;;;9.90;99.90;;;;;;4865238;29;20209;-82
2023/11/16 10:47:56;;;;;;;12.00;11.13;;;9.80;99.90;;;;;;4863249;29;20876;-78
2023/11/16 10:50:23;;;;;;;12.93;11.83;;;9.80;99.90;;;;;;4863699;29;20206;-78
2023/11/16 10:52:53;;;;;;;12.87;11.80;;;9.80;99.90;;;;;;4859250;29;20687;-78
2023/11/16 10:55:24;;;;;;;13.60;12.57;;;9.80;99.90;;;;;;4861023;29;20210;-79
2023/11/16 10:57:59;;;;;;;13.07;12.07;;;9.80;99.90;;;;;;4865432;29;20230;-78
2023/11/16 11:00:29;;;;;;;13.33;12.23;;;9.80;99.90;;;;;;4862096;29;20226;-77
2023/11/16 11:02:59;;;;;;;13.37;12.27;;;9.80;99.90;;;;;;4864553;29;20205;-78
2023/11/16 11:05:31;;;;;;;13.03;11.83;;;9.90;99.90;;;;;;4860033;29;20215;-78
2023/11/16 11:08:00;;;;;;;12.27;11.33;;;10.00;99.90;;;;;;4859695;29;20719;-78
2023/11/16 11:10:33;;;;;;;12.70;11.60;;;10.00;99.90;;;;;;4862408;29;20244;-79
2023/11/16 11:13:03;;;;;;;12.13;11.20;;;10.10;99.90;;;;;;4850649;29;20203;-77
2023/11/16 11:15:34;;;;;;;11.47;10.67;;;10.20;99.90;;;;;;4858548;29;20267;-78
2023/11/16 11:18:01;;;;;;;11.73;10.83;;;10.20;99.90;;;;;;4857962;29;20222;-77
2023/11/16 11:20:32;;;;;;;12.00;11.10;;;10.30;99.90;;;;;;4858039;29;20253;-77
2023/11/16 11:23:07;;;;;;;11.50;10.70;;;10.40;99.90;;;;;;4860457;29;20259;-81
2023/11/16 11:25:37;;;;;;;12.00;11.10;;;10.50;99.90;;;;;;4863842;29;20217;-82
2023/11/16 11:39:39;;;;;;;11.87;10.93;;;11.00;99.90;;;;;;4032716;23;20239;-79
2023/11/16 11:42:06;;;;;;;12.00;11.00;;;11.10;99.90;;;;;;4889881;29;20287;-79
2023/11/16 11:44:32;;;;;;;11.77;10.97;;;11.10;99.90;;;;;;4891201;29;20611;-80
2023/11/16 12:08:46;;;;;;;12.30;11.30;;;10.80;99.90;;;;;;4959185;23;20319;-84
2023/11/16 12:12:06;;;;;;;11.83;11.03;;;10.90;99.90;;;;;;4894563;29;20644;-85
2023/11/16 12:23:44;;;;;;;11.87;10.97;;;10.80;99.90;;;;;;4880569;29;20210;-77
2023/11/16 12:26:12;;;;;;;11.53;10.73;;;10.80;99.90;;;;;;4887357;29;20646;-77
2023/11/16 12:28:40;;;;;;;11.50;10.70;;;10.70;99.90;;;;;;4893821;29;20731;-77
2023/11/16 12:31:11;;;;;;;11.50;10.67;;;10.70;99.90;;;;;;4891128;29;20277;-80
2023/11/16 12:33:39;;;;;;;12.00;11.23;;;10.60;99.90;;;;;;4893129;29;20587;-78
2023/11/16 12:36:06;;;;;;;11.73;10.93;;;10.60;99.90;;;;;;4894126;29;20701;-77
2023/11/16 12:38:38;;;;;;;11.90;10.80;;;10.50;99.90;;;;;;4896153;29;20251;-81
2023/11/16 12:41:07;;;;;;;11.23;10.33;;;10.40;99.90;;;;;;4900089;29;20461;-79
2023/11/16 12:43:34;;;;;;;11.20;10.30;;;10.30;99.90;;;;;;4891960;29;20214;-78
2023/11/16 12:46:01;;;;;;;11.93;11.10;;;10.20;99.90;;;;;;4905010;29;20218;-78
2023/11/16 12:48:28;;;;;;;11.77;10.70;;;10.20;99.90;;;;;;4899812;29;20224;-78
2023/11/16 12:50:55;;;;;;;11.97;11.07;;;10.10;99.90;;;;;;4899520;29;20254;-79
2023/11/16 12:53:22;;;;;;;11.73;10.90;;;10.10;99.90;;;;;;4899264;29;20207;-79
2023/11/16 12:55:49;;;;;;;11.80;10.90;;;10.10;99.90;;;;;;4901775;29;20200;-77
2023/11/16 12:58:17;;;;;;;11.83;11.03;;;10.00;99.90;;;;;;4899878;29;20232;-79
2023/11/16 13:00:45;;;;;;;11.50;10.70;;;9.90;99.90;;;;;;4890783;29;20229;-78
2023/11/16 13:03:12;;;;;;;11.07;10.37;;;9.80;99.90;;;;;;4888412;29;20209;-78
2023/11/16 13:05:42;;;;;;;11.60;10.80;;;9.80;99.90;;;;;;4900227;29;20705;-78
2023/11/16 13:08:09;;;;;;;6.33;5.70;;;9.70;99.90;;;;;;4896973;29;20216;-78
2023/11/16 13:10:36;;;;;;;12.13;11.23;;;9.60;99.90;;;;;;4895624;29;20229;-78
2023/11/16 13:13:02;;;;;;;11.70;10.80;;;9.50;99.90;;;;;;4900717;29;20197;-79
2023/11/16 13:15:38;;;;;;;11.73;10.73;;;9.40;99.90;;;;;;4895495;29;20235;-82
2023/11/16 13:18:07;;;;;;;12.70;11.70;;;9.30;99.90;;;;;;4885557;29;20228;-78
2023/11/16 13:20:34;;;;;;;11.57;10.77;;;9.30;99.90;;;;;;4885487;29;20217;-77
2023/11/16 13:23:00;;;;;;;11.90;11.00;;;9.20;99.90;;;;;;4891477;29;20201;-77
2023/11/16 13:25:27;;;;;;;11.30;10.60;;;9.10;99.90;;;;;;4886618;29;20558;-79
2023/11/16 13:27:54;;;;;;;11.43;10.73;;;9.10;99.90;;;;;;4885635;29;20603;-80
2023/11/16 13:30:23;;;;;;;11.27;10.50;;;9.10;99.90;;;;;;4884539;29;20229;-83
2023/11/16 13:32:55;;;;;;;11.03;10.30;;;9.10;99.90;;;;;;4886749;29;20204;-85
2023/11/16 13:35:43;;;;;;;11.13;10.43;;;9.10;99.90;;;;;;4885567;29;20197;-82
2023/11/16 13:41:44;;;;;;;11.80;10.80;;;9.10;99.90;;;;;;4887591;29;20264;-83
2023/11/16 13:44:44;;;;;;;11.83;11.13;;;9.00;99.90;;;;;;4887624;29;20211;-81
2023/11/16 13:47:15;;;;;;;11.67;10.87;;;9.00;99.90;;;;;;4876331;29;20225;-81
2023/11/16 14:11:12;;;;;;;11.70;11.00;;;8.80;99.90;;;;;;4674888;30;20230;-79
2023/11/16 14:13:45;;;;;;;12.20;11.40;;;8.80;99.90;;;;;;4767730;29;20303;-81
2023/11/16 14:16:15;;;;;;;12.03;11.23;;;8.80;99.90;;;;;;4864367;29;20224;-84
2023/11/16 14:18:42;;;;;;;12.23;11.43;;;8.80;99.90;;;;;;4883621;29;20291;-81
2023/11/16 14:21:08;;;;;;;11.90;10.93;;;8.80;99.90;;;;;;4878246;29;20263;-80
2023/11/16 14:23:49;;;;;;;12.07;11.17;;;8.80;99.90;;;;;;4885182;29;20696;-82
2023/11/16 14:26:38;;;;;;;12.53;11.63;;;8.80;99.90;;;;;;4875694;29;20267;-77
2023/11/16 14:29:05;;;;;;;12.50;11.70;;;8.70;99.90;;;;;;4878846;29;20534;-78
2023/11/16 14:31:32;;;;;;;11.80;11.00;;;8.70;99.90;;;;;;4877274;29;20680;-77
2023/11/16 14:33:58;;;;;;;13.07;11.90;;;8.60;99.90;;;;;;4879722;29;20216;-78
2023/11/16 14:36:28;;;;;;;12.23;11.33;;;8.60;99.90;;;;;;4889735;29;20592;-80
2023/11/16 14:38:56;;;;;;;12.83;11.93;;;8.60;99.90;;;;;;4878260;29;20582;-77
2023/11/16 14:41:24;;;;;;;12.53;11.63;;;8.60;99.90;;;;;;4881260;29;20225;-77
2023/11/16 14:43:52;;;;;;;12.37;11.47;;;8.60;99.90;;;;;;4889740;29;20534;-76
2023/11/16 14:46:19;;;;;;;12.40;11.50;;;8.50;99.90;;;;;;4883219;29;20201;-77
2023/11/16 14:48:47;;;;;;;12.73;11.80;;;8.50;99.90;;;;;;4882293;29;20300;-77
2023/11/16 14:51:17;;;;;;;12.67;11.87;;;8.50;99.90;;;;;;4888318;29;20200;-77
2023/11/16 14:53:44;;;;;;;12.63;11.83;;;8.50;99.90;;;;;;4881836;29;20785;-77
2023/11/16 14:56:12;;;;;;;13.40;12.50;;;8.40;99.90;;;;;;4883755;29;20197;-77
2023/11/16 14:58:38;;;;;;;13.43;12.60;;;8.40;99.90;;;;;;4883840;29;20257;-76
2023/11/16 15:01:07;;;;;;;13.87;12.87;;;8.40;99.90;;;;;;4881852;29;20699;-77
2023/11/16 15:03:34;;;;;;;12.70;12.00;;;8.40;99.90;;;;;;4880179;29;20201;-76
2023/11/16 15:06:01;;;;;;;13.77;12.87;;;8.30;99.90;;;;;;4880719;29;20691;-76